Список аэропортов
Фактическая погода:

24 мая, 15:50
Температура: +17°C (+16.1*)
Ветер: западный 6 м/с
Давление: *766 мм
неб. 1350 м
разорв. обл.
2700 м
Время (МСК)Темп. СВетерВлажностьДавлениеОблачностьОсадки
15:00+19СЗ, 7 м/с37%1021 гПас прояснениями
16:00+20СЗ, 7 м/с37%1021 гПаоблачно
17:00+19СЗ, 7 м/с40%1020 гПаоблачно
18:00+19СЗ, 7 м/с43%1020 гПаоблачно
19:00+19СЗ, 7 м/с45%1020 гПаоблачно
20:00+18СЗ, 6 м/с47%1020 гПаоблачно
21:00+18СЗ, 6 м/с50%1020 гПаоблачно
22:00+17СЗ, 4 м/с52%1020 гПас прояснениями
23:00+16СЗ, 3 м/с63%1021 гПаоблачносл. дождь
25 мая
00:00+14СЗ, 2 м/с71%1021 гПаоблачносл. дождь
01:00+14СЗ, 2 м/с78%1021 гПаоблачнодождь
02:00+14СЗ, 3 м/с80%1021 гПаоблачнодождь
03:00+13СЗ, 3 м/с84%1021 гПас прояснениямисл. дождь
04:00+13СЗ, 2 м/с88%1022 гПаоблачно
05:00+12СЗ, 1 м/с92%1022 гПаоблачно
06:00+12СЗ, 1 м/с92%1022 гПаоблачно
07:00+12СЗ, 1 м/с91%1022 гПаоблачно
08:00+12СЗ, 1 м/с90%1022 гПаоблачно
09:00+13Штиль 87%1022 гПаоблачно
10:00+14ЮВ, 1 м/с75%1022 гПас прояснениями
11:00+16Ю, 1 м/с62%1022 гПаоблачно
12:00+16СЗ, 1 м/с55%1022 гПаоблачно
13:00+17С, 2 м/с53%1022 гПаоблачно
14:00+18С, 2 м/с52%1022 гПас прояснениями
15:00+18С, 2 м/с50%1022 гПаоблачно
16:00+19СЗ, 2 м/с48%1021 гПас прояснениями
17:00+19С, 2 м/с46%1021 гПаоблачно
18:00+20С, 3 м/с45%1021 гПаоблачно
19:00+19С, 2 м/с45%1021 гПаоблачно
20:00+19С, 2 м/с45%1021 гПаоблачно
21:00+19С, 2 м/с43%1021 гПаоблачно
22:00+18С, 2 м/с48%1021 гПаоблачно
23:00+18С, 1 м/с54%1021 гПаоблачно
26 мая
00:00+17С, 2 м/с56%1022 гПаоблачно
01:00+15С, 2 м/с68%1022 гПамалооблачно
02:00+13С, 1 м/с79%1022 гПаясно
03:00+12С, 1 м/с85%1022 гПаясно
04:00+11СЗ, 1 м/с89%1023 гПаясно
05:00+10З, 1 м/с92%1023 гПаясно
06:00+9ЮЗ, 1 м/с95%1023 гПаясно
07:00+9ЮЗ, 1 м/с96%1023 гПаясно
08:00+10ЮЗ, 1 м/с90%1023 гПаясно
09:00+14ЮЗ, 1 м/с75%1022 гПаясно
10:00+16Штиль 62%1022 гПаясно
11:00+19В, 1 м/с54%1022 гПаясно
12:00+20СВ, 2 м/с47%1022 гПаясно
13:00+21СВ, 2 м/с45%1022 гПаясно
14:00+22СВ, 2 м/с44%1021 гПаясно
15:00+22СВ, 2 м/с42%1021 гПаясно